KCDA

Caledonia County Airport

Lyndonville, Vermont, USA
METAR KCDA 191915Z AUTO 32007KT 10SM OVC026 15/09 A3005 RMK AO2 T01450092
Observed Flight Rules
Sep-19 @ 19:15 UTC (16 minutes ago) Marginal Visual Flight Rules
Wind Visibility Clouds
320° at 7 knots 10 miles
  • Overcast at 2,600' AGL
Temperatures Readings
Current 15°C / 59°F
Dewpoint 9°C / 48°F
Humidity 68%
Altimeter 30.05" Hg
Pressure 1018 hPa
Elevation 363
METAR KCDA 191915Z AUTO 32007KT 10SM OVC026 15/09 A3005 RMK AO2 T01450092
Observed Flight Rules
Sep-19 @ 19:15 UTC
(16 minutes ago)
MVFR
Wind Visibility
320° at 7 knots 10 miles
Clouds
  • Overcast at 2,600' AGL
Temperature Dewpoint
15°C / 59°F 9°C / 48°F
Humidity Altimeter Pressure
68% 30.05" Hg 1018 hPa